Kansas City, MO

4:46 PM CDT on May 25, 2015 (GMT -0500)
Weatherby Lake Westside | | Change Station
CLOSE
Current Station
Personal Weather Station
Location: Weatherby Lake, MO
Elevation: 909 ft
Nearby Weather Stations

Elev 909 ft 39.23 °N, 94.70 °W | Updated 8 seconds ago

Mostly Cloudy
Mostly Cloudy
78.7 °F
Feels Like 81 °F
N
20.1
Wind Variable Wind from South
Gusts 20.1 mph

Today
High -- | Low -- °F
--% Chance of Precip.
Yesterday
High -- | Low -- °F
Precip. -- in
5:57 AM 8:34 PM
First Quarter, 52% visible
Pressure 29.83 in
Visibility 10.0 miles
Clouds Scattered Clouds 3400 ft
Scattered Clouds 5500 ft
Mostly Cloudy 13000 ft
Heat Index 81 °F
Dew Point 65 °F
Humidity 63%
Rainfall 0.09 in
Snow Depth Not available.
UV 4 out of 12
Pollen 4.80 out of 12
Air Quality Not available.
Flu Activity Sporadic
METAR KMCI 252053Z 20017G26KT 10SM SCT034 SCT055 BKN130 26/19 A2985 RMK AO2 PK WND 16027/2011 SLP100 P0000 60000 T02560189 58013

More Conditions Fewer Conditions

Pressure 29.83 in
Visibility 10.0 miles
Clouds Scattered Clouds 3400 ft
Scattered Clouds 5500 ft
Mostly Cloudy 13000 ft
Heat Index 81 °F
Dew Point 65 °F
Humidity 63%
Rainfall 0.09 in
Snow Depth Not available.
UV 4 out of 12
Pollen 4.80 out of 12
Air Quality Not available.
Flu Activity Sporadic
METAR KMCI 252053Z 20017G26KT 10SM SCT034 SCT055 BKN130 26/19 A2985 RMK AO2 PK WND 16027/2011 SLP100 P0000 60000 T02560189 58013

More Conditions Fewer Conditions

10-Day Weather Forecast

Almanac

Astronomy

May. 25, 2015 Rise Set
Actual Time
Civil Twilight
Nautical Twilight
Astronomical Twilight
Moon
Length of Visible Light
Length of Day
Tomorrow will be .
, % of the Moon is Illuminated

Today's Extremes

State Highs State Lows

Community

WunderPhotos

Upload Photos

1,824,140 photos uploaded!

WunderBlogs® & News

Nearby

Air Quality

  Air Quality AQ Index Pollutant
Not available.

Snow Depth

Station Depth Elevation

Earthquake Activity

City Distance Mag. Time & Date
Minimum magnitude displayed is 2.5.

Coastal Water Temperatures

Place Temperature

Stations

Nearby Weather Stations

Station Location Temp. Windchill Dew Point Humidity Wind Precip. Elev Updated Type